Time;durP1;ratioP1;P1;durP2;ratioP2;P2;SDS_P1;SDS_P2;PMS_P1;PMS_P2;Temp;Humidity;BMP_temperature;BMP_pressure;BME280_temperature;BME280_humidity;BME280_pressure;Samples;Min_cycle;Max_cycle;Signal;HPM_P1;HPM_P2
2022/03/11 00:02:14;;;;;;;;;;;8.00;29.80;;;;;;5092791;28;19949;-60
2022/03/11 00:04:41;;;;;;;;;;;8.00;29.60;;;;;;5092219;28;19950;-61
2022/03/11 00:07:08;;;;;;;;;;;8.00;30.20;;;;;;5091950;28;19920;-61
2022/03/11 00:09:35;;;;;;;;;;;8.00;29.60;;;;;;5092664;28;19920;-61
2022/03/11 00:12:02;;;;;;;;;;;8.00;29.40;;;;;;5092294;28;20022;-61
2022/03/11 00:14:28;;;;;;;;;;;8.00;29.50;;;;;;5092055;28;20374;-61
2022/03/11 00:16:55;;;;;;;;;;;8.00;29.50;;;;;;5091924;28;19924;-61
2022/03/11 00:19:21;;;;;;;;;;;8.00;29.00;;;;;;5091915;28;19920;-61
2022/03/11 00:21:48;;;;;;;;;;;8.00;29.70;;;;;;5092059;28;20019;-60
2022/03/11 00:24:16;;;;;;;;;;;7.90;28.70;;;;;;5092111;28;19920;-61
2022/03/11 00:26:43;;;;;;;;;;;7.90;28.90;;;;;;5091703;28;19920;-61
2022/03/11 00:29:10;;;;;;;;;;;7.90;29.20;;;;;;5092191;28;19950;-60
2022/03/11 00:31:36;;;;;;;;;;;7.90;28.40;;;;;;5092162;28;19920;-61
2022/03/11 00:34:03;;;;;;;;;;;7.80;28.30;;;;;;5091883;28;19920;-60
2022/03/11 00:36:29;;;;;;;;;;;7.80;28.80;;;;;;5091809;28;19920;-61
2022/03/11 00:38:56;;;;;;;;;;;7.80;28.50;;;;;;5092077;28;19920;-58
2022/03/11 00:41:23;;;;;;;;;;;7.70;28.00;;;;;;5083619;28;20317;-60
2022/03/11 00:43:50;;;;;;;;;;;7.70;27.90;;;;;;5091750;28;19927;-61
2022/03/11 00:46:17;;;;;;;;;;;7.80;28.70;;;;;;5091737;28;19923;-59
2022/03/11 00:48:43;;;;;;;;;;;7.80;28.00;;;;;;5092448;28;19920;-58
2022/03/11 00:51:10;;;;;;;;;;;7.80;28.40;;;;;;5092507;28;19973;-61
2022/03/11 00:53:36;;;;;;;;;;;7.70;28.90;;;;;;5092428;28;19920;-57
2022/03/11 00:56:03;;;;;;;;;;;7.80;28.90;;;;;;5092334;28;19920;-57
2022/03/11 00:58:31;;;;;;;;;;;7.70;28.40;;;;;;5096087;28;19920;-61
2022/03/11 01:00:57;;;;;;;;;;;7.70;28.00;;;;;;5095870;28;19927;-60
2022/03/11 01:03:24;;;;;;;;;;;7.60;28.40;;;;;;5095350;28;19920;-61
2022/03/11 01:05:50;;;;;;;;;;;7.60;28.20;;;;;;5095280;28;19920;-60
2022/03/11 01:08:17;;;;;;;;;;;7.60;28.20;;;;;;5095275;28;19920;-61
2022/03/11 01:10:43;;;;;;;;;;;7.50;27.60;;;;;;5095048;28;19920;-60
2022/03/11 01:13:10;;;;;;;;;;;7.50;27.50;;;;;;5095457;28;19920;-60
2022/03/11 01:15:38;;;;;;;;;;;7.40;28.10;;;;;;5094838;28;20381;-60
2022/03/11 01:18:04;;;;;;;;;;;7.50;27.90;;;;;;5094692;28;19928;-60
2022/03/11 01:20:31;;;;;;;;;;;7.40;27.40;;;;;;5094959;28;19965;-59
2022/03/11 01:22:57;;;;;;;;;;;7.40;27.80;;;;;;5094914;28;19965;-60
2022/03/11 01:25:24;;;;;;;;;;;7.40;28.10;;;;;;5094759;28;19973;-60
2022/03/11 01:27:50;;;;;;;;;;;7.30;27.50;;;;;;5094364;28;19924;-61
2022/03/11 01:30:17;;;;;;;;;;;7.40;28.20;;;;;;5094411;28;19927;-60
2022/03/11 01:32:45;;;;;;;;;;;7.40;29.10;;;;;;5094505;28;19924;-61
2022/03/11 01:35:12;;;;;;;;;;;7.30;42.20;;;;;;5094696;28;20401;-61
2022/03/11 01:37:38;;;;;;;;;;;7.20;27.70;;;;;;5094451;28;19926;-61
2022/03/11 01:40:05;;;;;;;;;;;7.30;28.20;;;;;;5094253;28;20175;-61
2022/03/11 01:42:34;;;;;;;;;;;7.30;29.20;;;;;;5094667;28;19924;-61
2022/03/11 01:45:00;;;;;;;;;;;7.20;28.80;;;;;;5094111;28;19924;-61
2022/03/11 01:47:27;;;;;;;;;;;7.30;28.50;;;;;;5094381;28;19965;-59
2022/03/11 01:49:55;;;;;;;;;;;7.30;29.30;;;;;;5094394;28;19923;-59
2022/03/11 01:52:22;;;;;;;;;;;7.30;29.20;;;;;;5094580;28;19927;-60
2022/03/11 01:54:49;;;;;;;;;;;7.40;30.10;;;;;;5094301;28;20270;-61
2022/03/11 01:57:17;;;;;;;;;;;7.40;30.00;;;;;;5093983;28;19928;-60
2022/03/11 01:59:44;;;;;;;;;;;7.30;30.00;;;;;;5094460;28;20336;-61
2022/03/11 02:02:11;;;;;;;;;;;7.40;30.40;;;;;;5094065;28;20457;-61
2022/03/11 02:04:37;;;;;;;;;;;7.30;29.70;;;;;;5094207;28;19920;-61
2022/03/11 02:07:06;;;;;;;;;;;7.20;29.80;;;;;;5093547;28;19927;-61
2022/03/11 02:09:32;;;;;;;;;;;7.20;29.60;;;;;;5093039;28;19971;-60
2022/03/11 02:11:59;;;;;;;;;;;7.20;30.30;;;;;;5093846;28;19962;-61
2022/03/11 02:14:25;;;;;;;;;;;7.20;30.00;;;;;;5094149;28;19924;-60
2022/03/11 02:16:52;;;;;;;;;;;7.20;30.70;;;;;;5093471;28;19920;-60
2022/03/11 02:19:18;;;;;;;;;;;7.20;31.00;;;;;;5093768;28;20528;-61
2022/03/11 02:21:45;;;;;;;;;;;7.20;30.30;;;;;;5093637;28;19924;-61
2022/03/11 02:24:14;;;;;;;;;;;7.20;30.50;;;;;;5093574;28;19920;-61
2022/03/11 02:26:41;;;;;;;;;;;7.10;30.50;;;;;;5093073;28;19920;-61
2022/03/11 02:29:08;;;;;;;;;;;7.10;30.50;;;;;;5093416;28;19966;-61
2022/03/11 02:31:35;;;;;;;;;;;7.10;30.20;;;;;;5093706;28;20010;-60
2022/03/11 02:34:02;;;;;;;;;;;7.10;30.20;;;;;;5093346;28;19966;-61
2022/03/11 02:36:29;;;;;;;;;;;7.00;29.90;;;;;;5093294;28;19927;-61
2022/03/11 02:38:56;;;;;;;;;;;7.00;30.20;;;;;;5093312;28;19928;-61
2022/03/11 02:41:24;;;;;;;;;;;7.00;30.80;;;;;;5084873;28;20354;-61
2022/03/11 02:43:51;;;;;;;;;;;7.00;30.60;;;;;;5093399;28;19950;-61
2022/03/11 02:46:17;;;;;;;;;;;7.00;30.90;;;;;;5092872;28;19943;-60
2022/03/11 02:48:44;;;;;;;;;;;7.00;31.30;;;;;;5093653;28;19919;-58
2022/03/11 02:51:10;;;;;;;;;;;7.00;31.00;;;;;;5093090;28;19920;-58
2022/03/11 02:53:40;;;;;;;;;;;7.00;31.50;;;;;;5093474;28;19924;-58
2022/03/11 02:56:07;;;;;;;;;;;7.00;31.30;;;;;;5092811;28;19926;-60
2022/03/11 02:58:35;;;;;;;;;;;6.90;30.80;;;;;;5093027;28;19920;-60
2022/03/11 03:01:02;;;;;;;;;;;6.90;30.50;;;;;;5093208;28;19923;-60
2022/03/11 03:03:28;;;;;;;;;;;6.80;30.30;;;;;;5092761;28;20010;-60
2022/03/11 03:05:55;;;;;;;;;;;6.80;30.10;;;;;;5092871;28;19961;-59
2022/03/11 03:08:21;;;;;;;;;;;6.70;30.00;;;;;;5092568;28;19927;-59
2022/03/11 03:10:48;;;;;;;;;;;6.70;29.70;;;;;;5094036;28;19920;-60
2022/03/11 03:13:14;;;;;;;;;;;6.70;30.00;;;;;;5093014;28;19966;-59
2022/03/11 03:15:42;;;;;;;;;;;6.70;30.10;;;;;;5092772;28;19967;-60
2022/03/11 03:18:09;;;;;;;;;;;6.70;29.50;;;;;;5092480;28;19924;-59
2022/03/11 03:20:35;;;;;;;;;;;6.60;29.90;;;;;;5092462;28;20320;-61
2022/03/11 03:23:02;;;;;;;;;;;6.60;29.40;;;;;;5092805;28;19924;-60
2022/03/11 03:25:29;;;;;;;;;;;6.60;29.30;;;;;;5093250;28;19924;-60
2022/03/11 03:27:55;;;;;;;;;;;6.60;29.90;;;;;;5092295;28;20308;-60
2022/03/11 03:30:22;;;;;;;;;;;6.60;29.50;;;;;;5092450;28;20516;-61
2022/03/11 03:32:50;;;;;;;;;;;6.70;30.00;;;;;;5092647;28;19920;-61
2022/03/11 03:35:16;;;;;;;;;;;6.60;29.40;;;;;;5092280;28;19920;-60
2022/03/11 03:37:43;;;;;;;;;;;6.60;29.20;;;;;;5092494;28;19973;-60
2022/03/11 03:40:10;;;;;;;;;;;6.60;29.50;;;;;;5092525;28;19920;-61
2022/03/11 03:42:37;;;;;;;;;;;6.50;29.20;;;;;;5092458;28;19924;-60
2022/03/11 03:45:04;;;;;;;;;;;6.50;29.20;;;;;;5092470;28;19973;-60
2022/03/11 03:47:30;;;;;;;;;;;6.50;29.00;;;;;;5092149;28;20302;-61
2022/03/11 03:49:58;;;;;;;;;;;6.50;29.40;;;;;;5092199;28;19981;-61
2022/03/11 03:52:24;;;;;;;;;;;6.50;28.70;;;;;;5092476;28;19920;-61
2022/03/11 03:54:51;;;;;;;;;;;6.40;28.40;;;;;;5092258;28;19924;-60
2022/03/11 03:57:18;;;;;;;;;;;6.50;29.00;;;;;;5092041;28;19923;-61
2022/03/11 03:59:44;;;;;;;;;;;6.40;28.90;;;;;;5092074;28;20370;-61
2022/03/11 04:02:11;;;;;;;;;;;6.40;28.50;;;;;;5092277;28;19981;-60
2022/03/11 04:04:37;;;;;;;;;;;6.30;28.20;;;;;;5092023;28;19924;-61
2022/03/11 04:07:05;;;;;;;;;;;6.20;28.10;;;;;;5091967;28;20355;-62
2022/03/11 04:09:32;;;;;;;;;;;6.20;27.40;;;;;;5092190;28;19989;-62
2022/03/11 04:11:58;;;;;;;;;;;6.20;28.50;;;;;;5092440;28;19920;-62
2022/03/11 04:14:25;;;;;;;;;;;6.20;27.70;;;;;;5091973;28;19966;-62
2022/03/11 04:16:51;;;;;;;;;;;6.10;28.30;;;;;;5091725;28;19924;-62
2022/03/11 04:19:18;;;;;;;;;;;6.10;28.30;;;;;;5091839;28;19927;-62
2022/03/11 04:21:44;;;;;;;;;;;6.10;28.00;;;;;;5091954;28;19920;-62
2022/03/11 04:24:14;;;;;;;;;;;6.10;27.80;;;;;;5092005;28;19919;-62
2022/03/11 04:26:41;;;;;;;;;;;6.00;28.90;;;;;;5091697;28;19920;-62
2022/03/11 04:29:08;;;;;;;;;;;6.00;28.90;;;;;;5092298;28;19972;-62
2022/03/11 04:31:34;;;;;;;;;;;6.00;29.00;;;;;;5093506;28;19920;-62
2022/03/11 04:34:02;;;;;;;;;;;5.90;28.80;;;;;;5096250;28;19972;-60
2022/03/11 04:36:29;;;;;;;;;;;5.90;29.40;;;;;;5095604;28;20365;-59
2022/03/11 04:38:55;;;;;;;;;;;5.90;32.30;;;;;;5096046;28;20027;-61
2022/03/11 04:41:23;;;;;;;;;;;5.90;31.70;;;;;;5096336;28;20000;-60
2022/03/11 04:43:50;;;;;;;;;;;5.80;30.90;;;;;;5096186;28;19920;-61
2022/03/11 04:46:16;;;;;;;;;;;5.90;32.70;;;;;;5096266;28;19950;-62
2022/03/11 04:48:46;;;;;;;;;;;5.80;32.10;;;;;;5097650;28;19965;-61
2022/03/11 04:51:13;;;;;;;;;;;5.80;31.80;;;;;;5096960;28;19920;-61
2022/03/11 04:53:40;;;;;;;;;;;5.90;31.90;;;;;;5095818;28;19950;-61
2022/03/11 04:56:06;;;;;;;;;;;5.80;32.00;;;;;;5095559;28;19992;-60
2022/03/11 04:58:34;;;;;;;;;;;5.80;31.90;;;;;;5096159;28;19962;-62
2022/03/11 05:01:00;;;;;;;;;;;5.80;32.40;;;;;;5095465;28;19989;-62
2022/03/11 05:03:27;;;;;;;;;;;5.70;32.50;;;;;;5095346;28;19924;-61
2022/03/11 05:05:54;;;;;;;;;;;5.70;31.80;;;;;;5094887;28;19942;-62
2022/03/11 05:08:20;;;;;;;;;;;5.70;32.40;;;;;;5095265;28;19920;-62
2022/03/11 05:10:47;;;;;;;;;;;5.70;32.40;;;;;;5095015;28;19927;-62
2022/03/11 05:13:13;;;;;;;;;;;5.60;33.10;;;;;;5094872;28;19920;-62
2022/03/11 05:15:41;;;;;;;;;;;5.50;32.80;;;;;;5095117;28;19924;-61
2022/03/11 05:18:11;;;;;;;;;;;5.50;32.10;;;;;;5095237;28;20328;-61
2022/03/11 05:20:37;;;;;;;;;;;5.40;32.60;;;;;;5095276;28;19931;-62
2022/03/11 05:23:04;;;;;;;;;;;5.40;32.60;;;;;;5094701;28;19920;-62
2022/03/11 05:25:30;;;;;;;;;;;5.30;33.20;;;;;;5094963;28;19920;-62
2022/03/11 05:27:57;;;;;;;;;;;5.30;33.10;;;;;;5094311;28;19928;-62
2022/03/11 05:30:23;;;;;;;;;;;5.20;32.70;;;;;;5096032;28;19919;-61
2022/03/11 05:32:51;;;;;;;;;;;5.20;33.00;;;;;;5095208;28;20340;-62
2022/03/11 05:35:18;;;;;;;;;;;5.20;33.20;;;;;;5094970;28;20290;-61
2022/03/11 05:37:46;;;;;;;;;;;5.20;32.90;;;;;;5094455;28;19920;-61
2022/03/11 05:40:13;;;;;;;;;;;5.20;33.90;;;;;;5094349;28;19927;-61
2022/03/11 05:42:39;;;;;;;;;;;5.10;33.30;;;;;;5094563;28;19924;-60
2022/03/11 05:45:07;;;;;;;;;;;5.20;33.20;;;;;;5094502;28;19920;-61
2022/03/11 05:47:34;;;;;;;;;;;5.20;33.70;;;;;;5094017;28;20386;-61
2022/03/11 05:50:01;;;;;;;;;;;5.10;33.60;;;;;;5094165;28;20389;-62
2022/03/11 05:52:28;;;;;;;;;;;5.10;33.10;;;;;;5086883;28;19977;-61
2022/03/11 05:54:54;;;;;;;;;;;5.10;34.00;;;;;;5073375;28;19920;-63
2022/03/11 05:57:21;;;;;;;;;;;5.10;34.50;;;;;;5073496;28;20366;-63
2022/03/11 05:59:48;;;;;;;;;;;5.00;33.00;;;;;;5074245;28;19981;-63
2022/03/11 06:02:14;;;;;;;;;;;5.00;34.00;;;;;;5073398;28;19924;-62
2022/03/11 06:04:41;;;;;;;;;;;5.00;33.70;;;;;;5073997;28;19924;-62
2022/03/11 06:07:09;;;;;;;;;;;5.00;33.70;;;;;;5073339;28;19931;-62
2022/03/11 06:09:35;;;;;;;;;;;5.00;49.50;;;;;;5073786;28;19924;-62
2022/03/11 06:12:02;;;;;;;;;;;4.90;34.40;;;;;;5073523;28;19924;-62
2022/03/11 06:14:29;;;;;;;;;;;4.90;34.70;;;;;;5073506;28;19927;-62
2022/03/11 06:16:55;;;;;;;;;;;4.90;34.30;;;;;;5073259;28;20275;-62
2022/03/11 06:19:22;;;;;;;;;;;4.90;34.40;;;;;;5073058;28;19921;-62
2022/03/11 06:21:48;;;;;;;;;;;4.90;35.70;;;;;;5073487;28;19920;-62
2022/03/11 06:24:16;;;;;;;;;;;4.90;36.00;;;;;;5072565;28;20362;-65
2022/03/11 06:26:43;;;;;;;;;;;4.90;36.00;;;;;;5073190;28;19965;-64
2022/03/11 06:29:10;;;;;;;;;;;4.90;36.30;;;;;;5073150;28;20279;-66
2022/03/11 06:31:37;;;;;;;;;;;4.90;35.90;;;;;;5073179;28;19924;-65
2022/03/11 06:34:03;;;;;;;;;;;4.90;35.50;;;;;;5073224;28;19966;-65
2022/03/11 06:36:30;;;;;;;;;;;4.90;36.50;;;;;;5072823;28;20362;-66
2022/03/11 06:38:57;;;;;;;;;;;4.90;36.30;;;;;;5074030;28;20427;-65
2022/03/11 06:41:25;;;;;;;;;;;5.00;36.10;;;;;;5073908;28;20339;-64
2022/03/11 06:43:52;;;;;;;;;;;5.00;35.40;;;;;;5072911;28;19920;-65
2022/03/11 06:46:18;;;;;;;;;;;5.00;35.70;;;;;;5073105;28;19921;-65
2022/03/11 06:48:45;;;;;;;;;;;5.00;36.40;;;;;;5074862;28;19942;-64
2022/03/11 06:51:11;;;;;;;;;;;5.00;35.70;;;;;;5072929;28;19920;-63
2022/03/11 06:53:38;;;;;;;;;;;5.00;37.30;;;;;;5073143;28;19975;-64
2022/03/11 06:56:05;;;;;;;;;;;5.00;36.90;;;;;;5072098;28;19973;-64
2022/03/11 06:58:34;;;;;;;;;;;5.00;36.80;;;;;;5072573;28;20350;-65
2022/03/11 07:01:00;;;;;;;;;;;5.10;36.60;;;;;;5072959;28;20015;-65
2022/03/11 07:03:27;;;;;;;;;;;5.10;37.80;;;;;;5073127;28;19990;-64
2022/03/11 07:05:53;;;;;;;;;;;5.20;36.80;;;;;;5087286;28;19927;-63
2022/03/11 07:08:20;;;;;;;;;;;5.20;36.90;;;;;;5093023;28;19924;-62
2022/03/11 07:10:46;;;;;;;;;;;5.20;38.10;;;;;;5092816;28;19920;-63
2022/03/11 07:13:13;;;;;;;;;;;5.30;37.90;;;;;;5092883;28;19920;-63
2022/03/11 07:15:41;;;;;;;;;;;5.30;37.90;;;;;;5092330;28;19919;-65
2022/03/11 07:18:07;;;;;;;;;;;5.30;38.70;;;;;;5092201;28;20343;-65
2022/03/11 07:20:34;;;;;;;;;;;5.40;38.80;;;;;;5091731;28;19931;-63
2022/03/11 07:23:00;;;;;;;;;;;5.40;38.60;;;;;;5092896;28;20301;-64
2022/03/11 07:25:27;;;;;;;;;;;5.50;38.90;;;;;;5092198;28;20320;-64
2022/03/11 07:27:54;;;;;;;;;;;5.60;39.10;;;;;;5083075;28;20635;-66
2022/03/11 07:30:21;;;;;;;;;;;5.60;39.90;;;;;;5074950;28;19921;-66
2022/03/11 07:32:50;;;;;;;;;;;5.70;39.40;;;;;;5071306;28;19924;-65
2022/03/11 07:35:16;;;;;;;;;;;5.70;40.40;;;;;;5071780;28;19936;-64
2022/03/11 07:37:43;;;;;;;;;;;5.80;41.10;;;;;;5070987;28;19927;-64
2022/03/11 07:40:11;;;;;;;;;;;5.90;40.90;;;;;;5081455;28;19924;-64
2022/03/11 07:42:42;;;;;;;;;;;5.90;40.90;;;;;;5091631;28;20439;-66
2022/03/11 07:45:10;;;;;;;;;;;6.00;41.30;;;;;;5091429;28;19920;-63
2022/03/11 07:47:37;;;;;;;;;;;6.00;41.70;;;;;;5091123;28;20622;-65
2022/03/11 07:50:06;;;;;;;;;;;6.10;43.10;;;;;;5091363;28;20025;-66
2022/03/11 07:52:33;;;;;;;;;;;6.20;44.30;;;;;;5091726;28;20456;-63
2022/03/11 07:54:59;;;;;;;;;;;6.30;43.60;;;;;;5091401;28;19927;-65
2022/03/11 07:57:26;;;;;;;;;;;6.40;44.70;;;;;;5091270;28;19920;-64
2022/03/11 07:59:53;;;;;;;;;;;6.40;45.20;;;;;;5091358;28;19970;-64
2022/03/11 08:02:19;;;;;;;;;;;6.60;46.10;;;;;;5091477;28;19927;-64
2022/03/11 08:04:46;;;;;;;;;;;6.70;47.10;;;;;;5091654;28;19973;-64
2022/03/11 08:07:14;;;;;;;;;;;6.80;46.50;;;;;;5094800;28;19927;-64
2022/03/11 08:09:42;;;;;;;;;;;6.80;46.10;;;;;;5095640;28;19920;-63
2022/03/11 08:12:09;;;;;;;;;;;6.80;46.40;;;;;;5095510;28;20313;-64
2022/03/11 08:14:35;;;;;;;;;;;6.90;47.60;;;;;;5095426;28;19973;-63
2022/03/11 08:17:02;;;;;;;;;;;6.90;47.60;;;;;;5087429;28;19920;-66
2022/03/11 08:19:29;;;;;;;;;;;7.00;48.40;;;;;;5075468;28;19920;-66
2022/03/11 08:21:56;;;;;;;;;;;7.00;47.90;;;;;;5075300;28;19969;-63
2022/03/11 08:24:24;;;;;;;;;;;7.10;48.00;;;;;;5066911;28;19975;-65
2022/03/11 08:26:51;;;;;;;;;;;7.10;48.90;;;;;;5074609;28;19924;-67
2022/03/11 08:29:19;;;;;;;;;;;7.20;48.90;;;;;;5074228;28;19920;-65
2022/03/11 08:31:46;;;;;;;;;;;7.30;49.30;;;;;;5074749;28;19975;-62
2022/03/11 08:34:13;;;;;;;;;;;7.30;50.60;;;;;;5074967;28;19920;-64
2022/03/11 08:36:39;;;;;;;;;;;7.40;50.50;;;;;;5074508;28;19920;-65
2022/03/11 08:39:06;;;;;;;;;;;7.50;52.10;;;;;;5074591;28;19971;-66
2022/03/11 08:41:35;;;;;;;;;;;7.60;52.60;;;;;;5074386;28;19921;-64
2022/03/11 08:44:03;;;;;;;;;;;7.70;52.60;;;;;;5074870;28;19932;-65
2022/03/11 08:46:30;;;;;;;;;;;7.70;54.30;;;;;;5074107;28;20366;-65
2022/03/11 08:48:56;;;;;;;;;;;7.80;53.60;;;;;;5074282;28;19920;-67
2022/03/11 08:51:23;;;;;;;;;;;7.90;54.00;;;;;;5074767;28;19920;-64
2022/03/11 08:53:49;;;;;;;;;;;7.90;53.70;;;;;;5074150;28;20366;-65
2022/03/11 08:56:21;;;;;;;;;;;8.00;53.80;;;;;;5073842;28;19930;-63
2022/03/11 08:58:49;;;;;;;;;;;8.10;56.00;;;;;;5074271;28;19928;-64
2022/03/11 09:01:16;;;;;;;;;;;8.20;56.30;;;;;;5074329;28;20420;-63
2022/03/11 09:03:42;;;;;;;;;;;8.30;57.60;;;;;;5074303;28;20450;-67
2022/03/11 09:06:09;;;;;;;;;;;8.40;53.40;;;;;;5073507;28;19931;-62
2022/03/11 09:08:35;;;;;;;;;;;8.50;53.10;;;;;;5086642;28;19920;-61
2022/03/11 09:11:02;;;;;;;;;;;8.50;53.20;;;;;;5094080;28;19936;-62
2022/03/11 09:13:29;;;;;;;;;;;8.50;54.40;;;;;;5094530;28;19928;-62
2022/03/11 09:15:56;;;;;;;;;;;8.70;54.70;;;;;;5093779;28;20409;-62
2022/03/11 09:18:23;;;;;;;;;;;8.80;56.70;;;;;;5093190;28;19927;-61
2022/03/11 09:20:50;;;;;;;;;;;9.00;57.00;;;;;;5094633;28;19920;-62
2022/03/11 09:23:16;;;;;;;;;;;9.00;57.60;;;;;;5093808;28;19924;-62
2022/03/11 09:25:43;;;;;;;;;;;9.30;59.70;;;;;;5095252;28;19931;-61
2022/03/11 09:28:11;;;;;;;;;;;9.30;59.40;;;;;;5094301;28;19924;-61
2022/03/11 09:30:37;;;;;;;;;;;9.30;58.00;;;;;;5094807;28;19969;-63
2022/03/11 09:33:05;;;;;;;;;;;9.40;59.70;;;;;;5094607;28;20271;-65
2022/03/11 09:35:32;;;;;;;;;;;9.40;59.20;;;;;;5094036;28;19920;-64
2022/03/11 09:37:58;;;;;;;;;;;9.50;59.90;;;;;;5093503;28;19969;-64
2022/03/11 09:40:25;;;;;;;;;;;9.60;60.60;;;;;;5094415;28;19920;-65
2022/03/11 09:42:52;;;;;;;;;;;9.70;62.90;;;;;;5094252;28;19919;-62
2022/03/11 09:45:19;;;;;;;;;;;9.70;61.90;;;;;;5094961;28;19924;-64
2022/03/11 09:47:46;;;;;;;;;;;9.80;64.10;;;;;;5093986;28;19920;-65
2022/03/11 09:50:14;;;;;;;;;;;9.70;62.00;;;;;;5093907;28;19931;-64
2022/03/11 09:52:42;;;;;;;;;;;9.90;63.30;;;;;;5093467;28;19924;-64
2022/03/11 09:55:09;;;;;;;;;;;9.80;60.00;;;;;;5093982;28;20340;-64
2022/03/11 09:57:35;;;;;;;;;;;9.90;61.90;;;;;;5093474;28;19925;-62
2022/03/11 10:00:04;;;;;;;;;;;9.90;63.10;;;;;;5094158;28;19920;-67
2022/03/11 10:02:30;;;;;;;;;;;10.00;62.50;;;;;;5094530;28;20293;-63
2022/03/11 10:04:57;;;;;;;;;;;10.00;63.50;;;;;;5093181;28;20011;-65
2022/03/11 10:07:26;;;;;;;;;;;10.00;62.50;;;;;;5093450;28;19920;-64
2022/03/11 10:09:53;;;;;;;;;;;10.10;61.10;;;;;;5093687;28;19924;-63
2022/03/11 10:12:27;;;;;;;;;;;10.00;60.40;;;;;;5093719;28;19966;-62
2022/03/11 10:14:58;;;;;;;;;;;10.20;64.00;;;;;;5093173;28;19961;-61
2022/03/11 10:17:25;;;;;;;;;;;10.40;65.90;;;;;;5092265;28;20365;-61
2022/03/11 10:20:00;;;;;;;;;;;10.40;63.60;;;;;;5093507;28;20006;-62
2022/03/11 10:22:27;;;;;;;;;;;10.30;62.30;;;;;;5093643;28;20294;-63
2022/03/11 10:24:55;;;;;;;;;;;10.30;62.80;;;;;;5093414;28;20304;-64
2022/03/11 10:27:23;;;;;;;;;;;10.50;84.20;;;;;;5085427;28;19960;-64
2022/03/11 10:29:50;;;;;;;;;;;10.50;65.90;;;;;;5071301;28;19920;-62
2022/03/11 10:32:22;;;;;;;;;;;10.60;65.50;;;;;;5072581;28;19928;-62
2022/03/11 10:34:49;;;;;;;;;;;10.70;67.30;;;;;;5072418;28;20023;-64
2022/03/11 10:37:16;;;;;;;;;;;10.80;69.80;;;;;;5072505;28;19924;-64
2022/03/11 10:39:45;;;;;;;;;;;10.90;69.20;;;;;;5072068;28;19920;-63
2022/03/11 10:42:15;;;;;;;;;;;10.90;71.30;;;;;;5072425;28;19924;-63
2022/03/11 10:44:54;;;;;;;;;;;11.10;73.90;;;;;;5072410;28;19920;-64
2022/03/11 10:47:21;;;;;;;;;;;11.30;76.10;;;;;;5072148;28;19924;-63
2022/03/11 10:49:57;;;;;;;;;;;11.40;74.40;;;;;;5109156;27;19916;-65
2022/03/11 10:52:30;;;;;;;;;;;11.30;71.50;;;;;;5109180;28;19928;-65
2022/03/11 10:54:57;;;;;;;;;;;11.30;73.50;;;;;;5089535;28;19928;-65
2022/03/11 10:57:34;;;;;;;;;;;11.40;74.40;;;;;;5088796;28;19932;-65
2022/03/11 11:00:09;;;;;;;;;;;11.40;73.10;;;;;;5088977;28;19924;-66
2022/03/11 11:02:35;;;;;;;;;;;11.30;73.10;;;;;;5089070;28;20023;-66
2022/03/11 11:05:03;;;;;;;;;;;11.40;73.60;;;;;;5088797;28;19924;-66
2022/03/11 11:07:30;;;;;;;;;;;11.40;73.10;;;;;;5088318;28;19929;-64
2022/03/11 11:09:59;;;;;;;;;;;11.50;73.80;;;;;;5088254;28;20347;-64
2022/03/11 11:12:25;;;;;;;;;;;11.50;74.00;;;;;;5088955;28;20049;-63
2022/03/11 11:14:52;;;;;;;;;;;11.60;75.10;;;;;;5088483;28;20015;-66
2022/03/11 11:17:19;;;;;;;;;;;11.70;75.00;;;;;;5088700;28;19940;-64
2022/03/11 11:19:47;;;;;;;;;;;11.80;77.70;;;;;;5088102;28;20314;-66
2022/03/11 11:22:15;;;;;;;;;;;12.00;78.60;;;;;;5088229;28;19932;-62
2022/03/11 11:24:42;;;;;;;;;;;12.10;82.50;;;;;;5088585;28;19928;-64
2022/03/11 11:27:10;;;;;;;;;;;12.10;79.30;;;;;;5087701;28;20294;-65
2022/03/11 11:29:37;;;;;;;;;;;12.10;79.60;;;;;;5087862;28;19935;-64
2022/03/11 11:32:05;;;;;;;;;;;11.90;77.10;;;;;;5088103;28;19954;-64
2022/03/11 11:34:34;;;;;;;;;;;11.90;74.50;;;;;;5087971;28;19977;-64
2022/03/11 11:37:01;;;;;;;;;;;12.00;78.50;;;;;;5088301;28;20401;-66
2022/03/11 11:39:37;;;;;;;;;;;12.10;79.50;;;;;;5087372;28;20280;-66
2022/03/11 11:42:07;;;;;;;;;;;12.10;78.60;;;;;;5089042;28;19924;-66
2022/03/11 11:44:34;;;;;;;;;;;12.20;78.60;;;;;;5089551;28;19924;-67
2022/03/11 11:47:08;;;;;;;;;;;12.10;78.10;;;;;;5088076;28;19932;-66
2022/03/11 11:49:40;;;;;;;;;;;12.00;77.80;;;;;;5105174;28;20018;-66
2022/03/11 11:52:08;;;;;;;;;;;12.00;75.80;;;;;;5108013;28;19985;-66
2022/03/11 11:54:40;;;;;;;;;;;12.10;78.00;;;;;;5108492;28;19924;-67
2022/03/11 11:57:07;;;;;;;;;;;12.20;78.50;;;;;;5107798;28;19928;-67
2022/03/11 11:59:37;;;;;;;;;;;12.30;77.80;;;;;;5103826;28;19955;-65
2022/03/11 12:02:22;;;;;;;;;;;12.30;79.10;;;;;;5094272;28;19924;-66
2022/03/11 12:04:48;;;;;;;;;;;12.20;78.10;;;;;;5094857;28;19924;-64
2022/03/11 12:07:17;;;;;;;;;;;12.40;80.50;;;;;;5094342;28;20340;-65
2022/03/11 12:09:47;;;;;;;;;;;12.40;81.00;;;;;;5093854;28;20379;-64
2022/03/11 12:12:32;;;;;;;;;;;12.60;83.80;;;;;;5094383;28;20302;-65
2022/03/11 12:15:15;;;;;;;;;;;12.70;84.30;;;;;;5094304;28;20439;-64
2022/03/11 12:17:42;;;;;;;;;;;12.80;88.70;;;;;;5094034;28;19932;-65
2022/03/11 12:20:25;;;;;;;;;;;12.80;84.60;;;;;;5093634;28;19932;-68
2022/03/11 12:22:53;;;;;;;;;;;12.70;84.70;;;;;;5094527;28;19950;-65
2022/03/11 12:25:22;;;;;;;;;;;12.80;84.40;;;;;;5094542;28;20476;-66
2022/03/11 12:27:59;;;;;;;;;;;13.00;87.50;;;;;;5097440;28;20390;-65
2022/03/11 12:30:26;;;;;;;;;;;13.00;88.00;;;;;;5096106;28;19924;-68
2022/03/11 12:32:53;;;;;;;;;;;13.20;87.90;;;;;;5093666;28;19928;-66
2022/03/11 12:35:20;;;;;;;;;;;13.20;89.70;;;;;;5095583;28;20099;-67
2022/03/11 12:37:46;;;;;;;;;;;13.30;90.60;;;;;;5094084;28;20382;-66
2022/03/11 12:40:13;;;;;;;;;;;13.40;91.20;;;;;;5093959;28;19930;-67
2022/03/11 12:42:42;;;;;;;;;;;13.20;98.50;;;;;;5093545;28;19931;-64
2022/03/11 12:45:11;;;;;;;;;;;13.30;90.30;;;;;;5094269;28;20305;-68
2022/03/11 12:47:38;;;;;;;;;;;13.10;88.50;;;;;;5092992;28;20027;-67
2022/03/11 12:50:06;;;;;;;;;;;12.80;83.80;;;;;;5092820;28;20386;-66
2022/03/11 12:52:36;;;;;;;;;;;12.90;85.60;;;;;;5093727;28;20358;-67
2022/03/11 12:55:03;;;;;;;;;;;13.00;85.50;;;;;;5093162;28;19924;-66
2022/03/11 12:57:29;;;;;;;;;;;13.10;88.10;;;;;;5093288;28;19924;-67
2022/03/11 12:59:57;;;;;;;;;;;13.20;90.00;;;;;;5092866;28;19977;-64
2022/03/11 13:02:24;;;;;;;;;;;13.30;90.60;;;;;;5093880;28;19924;-64
2022/03/11 13:04:51;;;;;;;;;;;13.40;91.00;;;;;;5093443;28;19924;-65
2022/03/11 13:07:17;;;;;;;;;;;13.50;91.40;;;;;;5093098;28;19931;-65
2022/03/11 13:09:44;;;;;;;;;;;13.40;91.00;;;;;;5092954;28;19928;-65
2022/03/11 13:12:23;;;;;;;;;;;13.60;91.80;;;;;;5091901;28;20313;-67
2022/03/11 13:15:08;;;;;;;;;;;13.60;92.90;;;;;;5093470;28;19935;-66
2022/03/11 13:17:41;;;;;;;;;;;13.50;91.90;;;;;;5093136;28;20344;-66
2022/03/11 13:20:09;;;;;;;;;;;13.60;92.20;;;;;;5092653;28;19935;-66
2022/03/11 13:22:35;;;;;;;;;;;13.60;93.10;;;;;;5093105;28;19950;-66
2022/03/11 13:25:03;;;;;;;;;;;13.60;92.70;;;;;;5092428;28;20428;-67
2022/03/11 13:27:36;;;;;;;;;;;13.70;92.80;;;;;;5093407;28;20031;-65
2022/03/11 13:30:06;;;;;;;;;;;13.70;92.00;;;;;;5092312;28;19924;-65
2022/03/11 13:32:33;;;;;;;;;;;13.60;91.70;;;;;;5092874;28;19970;-64
2022/03/11 13:35:00;;;;;;;;;;;13.60;91.60;;;;;;5092462;28;19969;-66
2022/03/11 13:37:28;;;;;;;;;;;13.60;91.90;;;;;;5092284;28;20290;-65
2022/03/11 13:40:07;;;;;;;;;;;13.60;90.90;;;;;;5093342;28;19982;-66
2022/03/11 13:42:33;;;;;;;;;;;13.70;92.10;;;;;;5092686;28;19970;-67
2022/03/11 13:45:05;;;;;;;;;;;13.90;93.50;;;;;;5092700;28;19931;-65
2022/03/11 13:47:31;;;;;;;;;;;14.00;94.90;;;;;;5092128;28;19924;-65
2022/03/11 13:50:06;;;;;;;;;;;14.10;94.80;;;;;;5092132;28;19932;-67
2022/03/11 13:52:40;;;;;;;;;;;14.00;93.40;;;;;;5092859;28;19924;-65
2022/03/11 13:55:07;;;;;;;;;;;13.90;93.00;;;;;;5092681;28;20352;-67
2022/03/11 13:57:34;;;;;;;;;;;13.90;92.30;;;;;;5092247;28;20309;-66
2022/03/11 14:00:15;;;;;;;;;;;14.00;93.70;;;;;;5091622;28;19950;-67
2022/03/11 14:02:41;;;;;;;;;;;14.10;94.40;;;;;;5092340;28;19950;-64
2022/03/11 14:05:10;;;;;;;;;;;14.30;94.10;;;;;;5092100;28;19994;-65
2022/03/11 14:07:36;;;;;;;;;;;14.20;93.50;;;;;;5092667;28;20242;-65
2022/03/11 14:10:05;;;;;;;;;;;14.20;92.80;;;;;;5093569;28;19977;-64
2022/03/11 14:12:32;;;;;;;;;;;14.20;94.30;;;;;;5092566;28;20668;-64
2022/03/11 14:15:05;;;;;;;;;;;14.00;91.80;;;;;;5092350;28;20405;-66
2022/03/11 14:17:32;;;;;;;;;;;14.10;91.80;;;;;;5071784;28;19924;-65
2022/03/11 14:19:59;;;;;;;;;;;13.90;88.40;;;;;;5071623;28;19998;-65
2022/03/11 14:22:27;;;;;;;;;;;13.90;88.80;;;;;;5071093;28;19951;-67
2022/03/11 14:24:53;;;;;;;;;;;13.90;89.80;;;;;;5071794;28;19924;-67
2022/03/11 14:27:21;;;;;;;;;;;14.00;90.10;;;;;;5073103;28;20045;-65
2022/03/11 14:29:48;;;;;;;;;;;14.20;91.60;;;;;;5071854;28;19950;-67